createdAt,value
2022-11-20T00:01:32.967Z,10.10
2022-11-20T00:04:00.516Z,11.02
2022-11-20T00:06:29.171Z,9.30
2022-11-20T00:08:58.563Z,10.70
2022-11-20T00:11:27.728Z,10.68
2022-11-20T00:13:58.332Z,8.82
2022-11-20T00:16:28.801Z,9.00
2022-11-20T00:18:55.966Z,11.02
2022-11-20T00:21:25.304Z,10.98
2022-11-20T00:23:55.390Z,10.25
2022-11-20T00:26:24.480Z,10.88
2022-11-20T00:29:01.168Z,11.18
2022-11-20T00:31:29.221Z,13.75
2022-11-20T00:33:57.299Z,12.80
2022-11-20T00:36:27.376Z,10.73
2022-11-20T00:38:57.760Z,12.57
2022-11-20T00:41:26.563Z,8.70
2022-11-20T00:43:57.467Z,12.32
2022-11-20T00:46:28.220Z,9.73
2022-11-20T00:48:55.802Z,12.40
2022-11-20T00:51:26.325Z,13.38
2022-11-20T00:53:55.831Z,12.45
2022-11-20T00:56:23.139Z,12.38
2022-11-20T00:58:52.634Z,11.50
2022-11-20T01:01:25.827Z,12.27
2022-11-20T01:03:55.054Z,10.85
2022-11-20T01:06:28.347Z,11.07
2022-11-20T01:09:01.113Z,11.57
2022-11-20T01:11:31.465Z,11.65
2022-11-20T01:14:02.078Z,13.32
2022-11-20T01:16:37.811Z,12.90
2022-11-20T01:19:08.484Z,10.95
2022-11-20T01:21:38.300Z,11.93
2022-11-20T01:24:11.389Z,10.73
2022-11-20T01:26:41.088Z,12.43
2022-11-20T01:29:14.009Z,10.63
2022-11-20T01:31:41.230Z,13.35
2022-11-20T01:34:12.370Z,14.07
2022-11-20T01:36:40.866Z,13.30
2022-11-20T01:39:13.448Z,12.25
2022-11-20T01:42:01.277Z,13.73
2022-11-20T01:44:59.402Z,12.25
2022-11-20T01:47:33.185Z,14.13
2022-11-20T01:50:10.681Z,11.75
2022-11-20T01:52:42.414Z,12.80
2022-11-20T01:55:23.426Z,11.98
2022-11-20T01:57:51.322Z,13.15
2022-11-20T02:00:20.931Z,15.65
2022-11-20T02:03:11.148Z,15.68
2022-11-20T02:05:45.371Z,16.35
2022-11-20T02:08:14.246Z,17.53
2022-11-20T02:10:41.332Z,16.45
2022-11-20T02:13:27.945Z,14.80
2022-11-20T02:15:55.494Z,14.60
2022-11-20T02:18:24.276Z,16.67
2022-11-20T02:21:03.224Z,12.50
2022-11-20T02:23:45.111Z,13.50
2022-11-20T02:26:15.579Z,11.65
2022-11-20T02:28:43.320Z,12.38
2022-11-20T02:31:10.696Z,12.55
2022-11-20T02:33:38.170Z,14.43
2022-11-20T02:36:06.053Z,12.27
2022-11-20T02:38:33.290Z,13.43
2022-11-20T02:41:00.717Z,12.63
2022-11-20T02:43:27.954Z,15.93
2022-11-20T02:45:55.195Z,12.43
2022-11-20T02:48:25.008Z,13.15
2022-11-20T02:50:52.440Z,14.98
2022-11-20T02:53:19.557Z,14.15
2022-11-20T02:55:46.743Z,12.88
2022-11-20T02:58:13.806Z,13.15
2022-11-20T03:00:41.247Z,12.48
2022-11-20T03:03:08.714Z,14.25
2022-11-20T03:05:35.982Z,14.70
2022-11-20T03:08:03.136Z,13.43
2022-11-20T03:10:30.330Z,15.30
2022-11-20T03:12:57.727Z,12.73
2022-11-20T03:15:25.197Z,12.25
2022-11-20T03:17:56.726Z,13.68
2022-11-20T03:20:24.507Z,12.35
2022-11-20T03:22:51.717Z,13.23
2022-11-20T03:25:18.891Z,14.27
2022-11-20T03:27:46.129Z,11.90
2022-11-20T03:30:13.767Z,13.15
2022-11-20T03:32:40.924Z,15.02
2022-11-20T03:35:08.482Z,13.98
2022-11-20T03:37:38.522Z,14.60
2022-11-20T03:40:06.838Z,12.57
2022-11-20T03:42:46.143Z,15.50
2022-11-20T03:45:18.638Z,14.55
2022-11-20T03:47:46.249Z,15.10
2022-11-20T03:50:14.859Z,14.68
2022-11-20T03:52:42.245Z,14.20
2022-11-20T03:55:09.651Z,13.13
2022-11-20T03:57:36.841Z,14.18
2022-11-20T04:00:05.871Z,16.40
2022-11-20T04:02:33.250Z,15.57
2022-11-20T04:05:00.338Z,12.85
2022-11-20T04:07:27.576Z,16.23
2022-11-20T04:09:54.768Z,13.82
2022-11-20T04:12:21.879Z,13.65
2022-11-20T04:14:49.080Z,15.02
2022-11-20T04:17:16.409Z,14.18
2022-11-20T04:19:43.693Z,14.50
2022-11-20T04:22:12.739Z,15.60
2022-11-20T04:24:39.989Z,13.48
2022-11-20T04:27:07.097Z,14.10
2022-11-20T04:29:34.215Z,13.70
2022-11-20T04:32:01.794Z,13.70
2022-11-20T04:34:29.128Z,14.40
2022-11-20T04:36:56.357Z,15.15
2022-11-20T04:39:24.522Z,18.02
2022-11-20T04:42:14.545Z,15.82
2022-11-20T04:44:41.820Z,20.02
2022-11-20T04:47:09.674Z,16.70
2022-11-20T04:49:37.643Z,15.88
2022-11-20T04:52:04.878Z,15.75
2022-11-20T04:54:32.359Z,17.90
2022-11-20T04:56:59.559Z,18.42
2022-11-20T04:59:27.011Z,17.65
2022-11-20T05:01:54.354Z,18.45
2022-11-20T05:04:21.589Z,17.35
2022-11-20T05:06:49.277Z,19.70
2022-11-20T05:09:16.599Z,18.58
2022-11-20T05:11:46.209Z,18.75
2022-11-20T05:14:15.282Z,19.75
2022-11-20T05:16:43.000Z,18.83
2022-11-20T05:19:10.376Z,22.98
2022-11-20T05:21:37.404Z,19.60
2022-11-20T05:24:07.002Z,22.50
2022-11-20T05:26:34.263Z,22.95
2022-11-20T05:29:01.611Z,23.30
2022-11-20T05:31:28.834Z,22.00
2022-11-20T05:33:58.015Z,21.95
2022-11-20T05:36:25.566Z,25.75
2022-11-20T05:38:56.725Z,15.00
2022-11-20T05:41:26.125Z,16.35
2022-11-20T05:43:53.355Z,21.38
2022-11-20T05:46:28.762Z,21.70
2022-11-20T05:48:57.822Z,19.08
2022-11-20T05:51:26.491Z,21.20
2022-11-20T05:53:53.676Z,19.90
2022-11-20T05:56:23.621Z,19.30
2022-11-20T05:58:51.422Z,20.75
2022-11-20T06:01:21.734Z,20.33
2022-11-20T06:03:50.553Z,21.58
2022-11-20T06:06:18.654Z,24.75
2022-11-20T06:08:46.335Z,26.25
2022-11-20T06:11:15.474Z,26.30
2022-11-20T06:13:43.559Z,27.33
2022-11-20T06:16:12.281Z,23.63
2022-11-20T06:18:40.415Z,23.52
2022-11-20T06:21:13.886Z,23.83
2022-11-20T06:23:41.697Z,26.63
2022-11-20T06:26:30.053Z,22.35
2022-11-20T06:28:57.472Z,28.10
2022-11-20T06:31:26.168Z,27.50
2022-11-20T06:33:53.836Z,26.55
2022-11-20T06:36:23.094Z,23.60
2022-11-20T06:38:51.171Z,28.20
2022-11-20T06:41:21.228Z,28.05
2022-11-20T06:43:49.226Z,27.42
2022-11-20T06:46:21.403Z,29.15
2022-11-20T06:48:49.891Z,25.92
2022-11-20T06:51:17.256Z,30.05
2022-11-20T06:53:44.475Z,33.13
2022-11-20T06:56:11.940Z,27.73
2022-11-20T06:58:39.383Z,26.67
2022-11-20T07:01:10.289Z,33.50
2022-11-20T07:03:37.857Z,31.92
2022-11-20T07:06:06.298Z,33.78
2022-11-20T07:08:34.417Z,29.35
2022-11-20T07:11:03.557Z,31.70
2022-11-20T07:13:32.760Z,31.10
2022-11-20T07:16:05.649Z,33.15
2022-11-20T07:18:33.022Z,31.63
2022-11-20T07:21:09.247Z,29.48
2022-11-20T07:23:37.700Z,31.75
2022-11-20T07:26:10.369Z,34.45
2022-11-20T07:28:38.271Z,36.35
2022-11-20T07:31:07.851Z,34.67
2022-11-20T07:33:35.366Z,36.10
2022-11-20T07:36:02.998Z,35.35
2022-11-20T07:38:31.247Z,39.47
2022-11-20T07:40:59.142Z,35.17
2022-11-20T07:43:26.709Z,35.63
2022-11-20T07:45:57.637Z,38.20
2022-11-20T07:48:25.824Z,34.90
2022-11-20T07:50:59.245Z,35.40
2022-11-20T07:53:26.965Z,34.97
2022-11-20T07:55:54.222Z,35.85
2022-11-20T07:58:22.606Z,38.70
2022-11-20T08:00:50.046Z,35.90
2022-11-20T08:03:24.120Z,34.45
2022-11-20T08:05:53.076Z,32.53
2022-11-20T08:08:20.390Z,32.90
2022-11-20T08:10:48.005Z,31.15
2022-11-20T08:13:33.481Z,34.88
2022-11-20T08:18:32.443Z,33.63
2022-11-20T08:21:05.968Z,34.58
2022-11-20T08:23:33.453Z,33.40
2022-11-20T08:26:00.813Z,35.70
2022-11-20T08:28:28.026Z,31.83
2022-11-20T08:31:02.872Z,42.10
2022-11-20T08:33:31.089Z,32.83
2022-11-20T08:36:02.710Z,33.63
2022-11-20T08:38:30.806Z,35.13
2022-11-20T08:41:21.666Z,38.33
2022-11-20T08:43:49.660Z,36.83
2022-11-20T08:46:16.828Z,38.33
2022-11-20T08:48:44.942Z,37.05
2022-11-20T08:51:13.168Z,39.28
2022-11-20T08:53:40.879Z,38.47
2022-11-20T08:56:08.664Z,39.42
2022-11-20T08:58:55.028Z,36.58
2022-11-20T09:01:24.819Z,34.40
2022-11-20T09:03:57.080Z,36.30
2022-11-20T09:06:24.570Z,39.92
2022-11-20T09:08:55.592Z,39.45
2022-11-20T09:11:23.000Z,36.90
2022-11-20T09:13:50.752Z,39.83
2022-11-20T09:16:17.977Z,41.17
2022-11-20T09:18:45.637Z,38.65
2022-11-20T09:21:15.293Z,32.90
2022-11-20T09:23:42.969Z,38.13
2022-11-20T09:26:14.889Z,36.60
2022-11-20T09:28:43.528Z,38.65
2022-11-20T09:31:21.387Z,37.13
2022-11-20T09:33:48.746Z,36.92
2022-11-20T09:36:17.152Z,37.25
2022-11-20T09:38:44.232Z,39.75
2022-11-20T09:41:36.612Z,38.92
2022-11-20T09:44:20.166Z,39.70
2022-11-20T09:46:59.530Z,34.60
2022-11-20T09:49:45.404Z,32.38
2022-11-20T09:52:35.972Z,31.23
2022-11-20T09:55:05.016Z,31.60
2022-11-20T09:57:42.621Z,34.22
2022-11-20T10:00:15.300Z,32.25
2022-11-20T10:02:46.167Z,34.30
2022-11-20T10:05:20.816Z,28.73
2022-11-20T10:08:10.389Z,26.30
2022-11-20T10:10:49.499Z,30.10
2022-11-20T10:14:02.166Z,28.05
2022-11-20T10:16:48.143Z,28.05
2022-11-20T10:19:28.912Z,28.63
2022-11-20T10:22:14.716Z,32.20
2022-11-20T10:24:51.953Z,22.92
2022-11-20T10:27:19.252Z,19.90
2022-11-20T10:29:55.062Z,21.42
2022-11-20T10:32:31.428Z,22.50
2022-11-20T10:35:05.319Z,22.92
2022-11-20T10:37:38.944Z,22.10
2022-11-20T10:40:21.235Z,25.30
2022-11-20T10:42:57.395Z,30.48
2022-11-20T10:45:30.580Z,26.63
2022-11-20T10:48:16.861Z,25.27
2022-11-20T10:50:56.290Z,31.10
2022-11-20T10:53:42.043Z,27.73
2022-11-20T10:56:24.540Z,25.35
2022-11-20T10:59:32.015Z,38.20
2022-11-20T11:02:02.643Z,34.05
2022-11-20T11:04:45.858Z,32.67
2022-11-20T11:07:39.405Z,30.52
2022-11-20T11:10:42.500Z,34.80
2022-11-20T11:13:21.670Z,35.45
2022-11-20T11:15:48.962Z,31.08
2022-11-20T11:18:34.687Z,31.65
2022-11-20T11:21:05.363Z,33.20
2022-11-20T11:23:34.436Z,31.00
2022-11-20T11:26:04.375Z,35.13
2022-11-20T11:28:32.010Z,36.67
2022-11-20T11:30:59.199Z,31.67
2022-11-20T11:33:32.242Z,33.85
2022-11-20T11:36:21.793Z,32.80
2022-11-20T11:38:53.506Z,32.22
2022-11-20T11:41:25.289Z,30.75
2022-11-20T11:44:17.064Z,27.77
2022-11-20T11:46:58.232Z,30.52
2022-11-20T11:49:25.958Z,30.95
2022-11-20T11:51:53.216Z,31.48
2022-11-20T11:54:31.804Z,31.55
2022-11-20T11:57:04.844Z,31.15
2022-11-20T12:00:09.479Z,31.38
2022-11-20T12:02:45.930Z,38.30
2022-11-20T12:05:21.650Z,34.90
2022-11-20T12:08:24.938Z,29.35
2022-11-20T12:10:55.263Z,27.60
2022-11-20T12:13:31.422Z,29.15
2022-11-20T12:15:59.816Z,29.98
2022-11-20T12:18:28.222Z,27.23
2022-11-20T12:21:20.762Z,25.67
2022-11-20T12:24:03.941Z,26.15
2022-11-20T12:27:02.538Z,29.40
2022-11-20T12:29:38.172Z,25.50
2022-11-20T12:32:31.256Z,28.15
2022-11-20T12:35:37.579Z,25.25
2022-11-20T12:38:32.595Z,27.33
2022-11-20T12:41:06.360Z,25.73
2022-11-20T12:44:04.218Z,26.77
2022-11-20T12:46:53.251Z,23.67
2022-11-20T12:49:40.342Z,23.23
2022-11-20T12:52:16.820Z,30.35
2022-11-20T12:54:51.532Z,22.63
2022-11-20T12:58:07.292Z,25.23
2022-11-20T13:00:36.391Z,20.90
2022-11-20T13:03:20.356Z,24.67
2022-11-20T13:06:09.034Z,22.63
2022-11-20T13:08:40.123Z,29.30
2022-11-20T13:11:14.497Z,27.70
2022-11-20T13:14:05.011Z,24.27
2022-11-20T13:16:48.459Z,26.65
2022-11-20T13:19:20.974Z,28.27
2022-11-20T13:21:52.266Z,30.83
2022-11-20T13:24:31.537Z,28.27
2022-11-20T13:27:07.255Z,33.47
2022-11-20T13:29:41.388Z,26.75
2022-11-20T13:32:16.178Z,28.77
2022-11-20T13:34:53.980Z,29.25
2022-11-20T13:37:36.103Z,27.55
2022-11-20T13:40:07.449Z,25.35
2022-11-20T13:42:40.970Z,19.92
2022-11-20T13:45:30.087Z,23.95
2022-11-20T13:47:59.551Z,24.92
2022-11-20T13:50:37.336Z,25.10
2022-11-20T13:53:33.786Z,22.40
2022-11-20T13:56:45.054Z,24.10
2022-11-20T13:59:38.303Z,25.23
2022-11-20T14:02:15.692Z,18.77
2022-11-20T14:04:56.070Z,23.95
2022-11-20T14:07:28.552Z,18.70
2022-11-20T14:09:57.942Z,19.90
2022-11-20T14:12:30.854Z,20.02
2022-11-20T14:14:58.929Z,24.52
2022-11-20T14:17:32.255Z,22.55
2022-11-20T14:20:03.998Z,20.98
2022-11-20T14:22:31.483Z,20.83
2022-11-20T14:25:16.668Z,19.40
2022-11-20T14:27:53.997Z,20.60
2022-11-20T14:30:24.561Z,23.05
2022-11-20T14:32:55.577Z,20.92
2022-11-20T14:35:31.489Z,25.38
2022-11-20T14:37:59.098Z,20.52
2022-11-20T14:40:33.332Z,19.05
2022-11-20T14:43:00.895Z,17.70
2022-11-20T14:45:29.187Z,19.58
2022-11-20T14:47:59.130Z,20.52
2022-11-20T14:50:30.638Z,18.58
2022-11-20T14:53:01.090Z,20.30
2022-11-20T14:55:39.188Z,19.38
2022-11-20T14:58:21.501Z,18.65
2022-11-20T15:01:00.640Z,21.27
2022-11-20T15:03:38.084Z,19.42
2022-11-20T15:06:08.266Z,16.60
2022-11-20T15:08:36.338Z,19.75
2022-11-20T15:11:05.082Z,20.90
2022-11-20T15:13:40.242Z,21.50
2022-11-20T15:16:20.293Z,19.63
2022-11-20T15:18:48.527Z,21.23
2022-11-20T15:21:17.870Z,19.30
2022-11-20T15:23:47.051Z,22.70
2022-11-20T15:26:20.282Z,20.15
2022-11-20T15:28:49.157Z,23.35
2022-11-20T15:31:19.804Z,18.80
2022-11-20T15:33:47.502Z,20.30
2022-11-20T15:36:15.338Z,21.67
2022-11-20T15:38:42.872Z,19.10
2022-11-20T15:41:11.452Z,20.98
2022-11-20T15:43:40.595Z,21.73
2022-11-20T15:46:12.490Z,24.65
2022-11-20T15:48:55.293Z,19.00
2022-11-20T15:51:37.519Z,18.42
2022-11-20T15:54:13.679Z,21.20
2022-11-20T15:56:40.932Z,22.48
2022-11-20T15:59:08.419Z,19.83
2022-11-20T16:01:38.856Z,15.77
2022-11-20T16:04:10.910Z,18.02
2022-11-20T16:06:44.089Z,20.27
2022-11-20T16:09:12.929Z,18.90
2022-11-20T16:11:40.537Z,21.50
2022-11-20T16:14:35.878Z,24.92
2022-11-20T16:17:04.326Z,20.63
2022-11-20T16:19:31.618Z,20.15
2022-11-20T16:22:03.014Z,19.17
2022-11-20T16:24:31.199Z,17.20
2022-11-20T16:26:59.597Z,16.65
2022-11-20T16:29:26.851Z,16.88
2022-11-20T16:31:53.991Z,16.08
2022-11-20T16:34:21.336Z,15.73
2022-11-20T16:36:49.616Z,15.40
2022-11-20T16:39:22.092Z,18.02
2022-11-20T16:41:51.688Z,13.18
2022-11-20T16:44:18.962Z,13.82
2022-11-20T16:46:46.204Z,14.95
2022-11-20T16:49:14.715Z,15.80
2022-11-20T16:51:42.944Z,13.30
2022-11-20T16:54:11.281Z,13.10
2022-11-20T16:56:40.576Z,13.48
2022-11-20T16:59:07.759Z,12.00
2022-11-20T17:01:38.715Z,13.45
2022-11-20T17:04:07.367Z,14.07
2022-11-20T17:06:39.181Z,16.70
2022-11-20T17:09:11.024Z,13.95
2022-11-20T17:11:41.474Z,13.73
2022-11-20T17:14:08.951Z,14.63
2022-11-20T17:16:37.528Z,12.73
2022-11-20T17:19:09.416Z,12.43
2022-11-20T17:21:37.347Z,16.40
2022-11-20T17:24:07.207Z,15.15
2022-11-20T17:26:35.336Z,14.48
2022-11-20T17:29:05.570Z,14.93
2022-11-20T17:31:34.955Z,12.90
2022-11-20T17:34:03.348Z,11.60
2022-11-20T17:36:32.090Z,12.13
2022-11-20T17:39:00.726Z,14.15
2022-11-20T17:41:29.714Z,16.00
2022-11-20T17:43:59.194Z,15.02
2022-11-20T17:46:33.712Z,10.38
2022-11-20T17:49:02.032Z,15.25
2022-11-20T17:51:31.627Z,12.57
2022-11-20T17:54:04.404Z,13.95
2022-11-20T17:56:53.976Z,12.48
2022-11-20T17:59:21.631Z,15.52
2022-11-20T18:01:48.932Z,16.38
2022-11-20T18:04:17.837Z,13.32
2022-11-20T18:06:45.835Z,13.00
2022-11-20T18:09:13.323Z,15.27
2022-11-20T18:11:42.892Z,14.63
2022-11-20T18:14:50.008Z,11.27
2022-11-20T18:17:18.292Z,12.68
2022-11-20T18:20:13.762Z,12.07
2022-11-20T18:22:35.709Z,16.63
2022-11-20T18:25:06.858Z,14.90
2022-11-20T18:27:34.209Z,15.38
2022-11-20T18:30:01.348Z,15.45
2022-11-20T18:32:30.774Z,14.82
2022-11-20T18:34:58.165Z,14.35
2022-11-20T18:37:25.421Z,14.80
2022-11-20T18:39:52.956Z,15.18
2022-11-20T18:42:38.601Z,15.35
2022-11-20T18:45:06.626Z,15.00
2022-11-20T18:47:40.397Z,15.98
2022-11-20T18:50:09.240Z,14.75
2022-11-20T18:52:44.717Z,16.60
2022-11-20T18:58:06.355Z,14.88
2022-11-20T19:00:34.937Z,15.38
2022-11-20T19:03:05.573Z,16.25
2022-11-20T19:05:36.607Z,14.95
2022-11-20T19:08:03.858Z,16.05
2022-11-20T19:10:31.504Z,16.23
2022-11-20T19:12:59.584Z,17.35
2022-11-20T19:15:28.638Z,18.35
2022-11-20T19:17:57.808Z,17.90
2022-11-20T19:20:26.239Z,13.90
2022-11-20T19:22:55.897Z,17.17
2022-11-20T19:25:23.169Z,23.38
2022-11-20T19:27:50.567Z,22.30
2022-11-20T19:30:18.689Z,20.38
2022-11-20T19:32:47.153Z,20.02
2022-11-20T19:35:14.378Z,23.23
2022-11-20T19:37:42.444Z,17.50
2022-11-20T19:40:10.025Z,17.02
2022-11-20T19:42:37.997Z,18.38
2022-11-20T19:45:05.593Z,17.20
2022-11-20T19:48:01.080Z,16.50
2022-11-20T19:50:21.014Z,15.25
2022-11-20T19:52:48.284Z,16.42
2022-11-20T19:55:15.562Z,16.17
2022-11-20T19:57:44.413Z,20.75
2022-11-20T20:00:15.945Z,18.25
2022-11-20T20:02:47.262Z,19.20
2022-11-20T20:05:14.350Z,19.88
2022-11-20T20:07:42.287Z,21.77
2022-11-20T20:10:10.435Z,21.23
2022-11-20T20:12:39.930Z,20.92
2022-11-20T20:15:07.893Z,18.08
2022-11-20T20:17:35.409Z,20.88
2022-11-20T20:20:02.967Z,17.00
2022-11-20T20:22:31.858Z,18.85
2022-11-20T20:24:59.150Z,18.88
2022-11-20T20:27:27.051Z,19.50
2022-11-20T20:29:54.455Z,17.65
2022-11-20T20:32:21.688Z,16.02
2022-11-20T20:34:49.523Z,19.15
2022-11-20T20:37:16.786Z,18.27
2022-11-20T20:39:43.822Z,15.52
2022-11-20T20:42:11.160Z,18.70
2022-11-20T20:44:56.666Z,18.95
2022-11-20T20:47:23.931Z,16.55
2022-11-20T20:49:51.113Z,16.60
2022-11-20T20:52:18.361Z,17.52
2022-11-20T20:54:46.620Z,18.55
2022-11-20T20:57:13.832Z,19.90
2022-11-20T20:59:41.076Z,19.35
2022-11-20T21:02:10.519Z,17.65
2022-11-20T21:04:37.865Z,16.23
2022-11-20T21:07:05.094Z,19.75
2022-11-20T21:09:32.595Z,17.63
2022-11-20T21:11:59.718Z,19.77
2022-11-20T21:14:26.777Z,19.40
2022-11-20T21:16:54.241Z,16.88
2022-11-20T21:19:21.802Z,17.73
2022-11-20T21:22:01.850Z,17.92
2022-11-20T21:24:34.830Z,21.58
2022-11-20T21:27:05.854Z,17.27
2022-11-20T21:29:33.218Z,23.02
2022-11-20T21:32:00.272Z,25.35
2022-11-20T21:34:27.648Z,18.23
2022-11-20T21:36:54.965Z,21.20
2022-11-20T21:39:23.383Z,20.45
2022-11-20T21:41:50.437Z,20.45
2022-11-20T21:44:30.917Z,19.83
2022-11-20T21:47:00.269Z,19.85
2022-11-20T21:49:28.209Z,19.33
2022-11-20T21:51:55.541Z,19.92
2022-11-20T21:54:22.979Z,21.15
2022-11-20T21:56:50.590Z,18.13
2022-11-20T21:59:17.755Z,20.13
2022-11-20T22:01:45.330Z,17.90
2022-11-20T22:04:14.656Z,22.17
2022-11-20T22:06:41.894Z,21.48
2022-11-20T22:09:10.861Z,17.50
2022-11-20T22:11:38.902Z,20.10
2022-11-20T22:14:21.184Z,21.42
2022-11-20T22:16:50.673Z,21.73
2022-11-20T22:19:20.222Z,20.58
2022-11-20T22:21:47.817Z,21.27
2022-11-20T22:24:17.758Z,22.17
2022-11-20T22:26:45.613Z,21.60
2022-11-20T22:29:21.367Z,22.90
2022-11-20T22:31:51.237Z,19.40
2022-11-20T22:34:18.522Z,19.05
2022-11-20T22:36:45.862Z,20.85
2022-11-20T22:39:13.121Z,17.67
2022-11-20T22:41:40.981Z,18.48
2022-11-20T22:44:08.600Z,19.50
2022-11-20T22:46:37.630Z,19.45
2022-11-20T22:49:07.643Z,20.00
2022-11-20T22:51:37.562Z,20.42
2022-11-20T22:54:05.109Z,20.55
2022-11-20T22:56:33.192Z,19.42
2022-11-20T22:59:00.539Z,20.48
2022-11-20T23:01:34.443Z,21.25
2022-11-20T23:04:05.008Z,19.63
2022-11-20T23:06:35.684Z,18.10
2022-11-20T23:09:04.777Z,20.08
2022-11-20T23:11:32.874Z,16.77
2022-11-20T23:14:06.534Z,18.38
2022-11-20T23:16:35.082Z,20.23
2022-11-20T23:19:06.028Z,17.70
2022-11-20T23:21:34.195Z,19.20
2022-11-20T23:24:01.433Z,17.33
2022-11-20T23:26:32.646Z,16.23
2022-11-20T23:29:01.134Z,17.67
2022-11-20T23:31:30.373Z,20.25
2022-11-20T23:33:58.743Z,18.75
2022-11-20T23:36:26.883Z,18.73
2022-11-20T23:38:54.302Z,20.50
2022-11-20T23:41:21.690Z,19.15
2022-11-20T23:43:49.411Z,19.38
2022-11-20T23:46:17.144Z,20.75
2022-11-20T23:48:45.678Z,18.35
2022-11-20T23:51:14.184Z,20.95
2022-11-20T23:53:41.757Z,22.17
2022-11-20T23:56:09.147Z,21.88
2022-11-20T23:58:38.016Z,19.90
